sensor_id;sensor_type;location;lat;lon;timestamp;P1;durP1;ratioP1;P2;durP2;ratioP2
6739;SDS011;3407;49.882;10.920;2022-09-01T00:01:02;1.00;;;1.00;;
6739;SDS011;3407;49.882;10.920;2022-09-01T00:06:02;1.40;;;1.30;;
6739;SDS011;3407;49.882;10.920;2022-09-01T00:10:58;1.90;;;1.70;;
6739;SDS011;3407;49.882;10.920;2022-09-01T00:15:53;1.10;;;1.10;;
6739;SDS011;3407;49.882;10.920;2022-09-01T00:20:49;1.10;;;1.10;;
6739;SDS011;3407;49.882;10.920;2022-09-01T00:25:44;1.37;;;1.30;;
6739;SDS011;3407;49.882;10.920;2022-09-01T00:30:40;1.27;;;1.17;;
6739;SDS011;3407;49.882;10.920;2022-09-01T00:35:35;1.20;;;1.20;;
6739;SDS011;3407;49.882;10.920;2022-09-01T00:40:31;2.40;;;1.27;;
6739;SDS011;3407;49.882;10.920;2022-09-01T00:45:27;0.93;;;0.93;;
6739;SDS011;3407;49.882;10.920;2022-09-01T00:50:22;1.20;;;1.20;;
6739;SDS011;3407;49.882;10.920;2022-09-01T00:55:29;2.10;;;1.20;;
6739;SDS011;3407;49.882;10.920;2022-09-01T01:00:28;1.23;;;1.23;;
6739;SDS011;3407;49.882;10.920;2022-09-01T01:05:26;1.00;;;1.00;;
6739;SDS011;3407;49.882;10.920;2022-09-01T01:10:27;1.43;;;1.37;;
6739;SDS011;3407;49.882;10.920;2022-09-01T01:15:27;1.30;;;1.20;;
6739;SDS011;3407;49.882;10.920;2022-09-01T01:20:24;1.57;;;1.33;;
6739;SDS011;3407;49.882;10.920;2022-09-01T01:25:42;1.50;;;1.40;;
6739;SDS011;3407;49.882;10.920;2022-09-01T01:30:44;1.57;;;1.47;;
6739;SDS011;3407;49.882;10.920;2022-09-01T01:35:46;1.10;;;1.10;;
6739;SDS011;3407;49.882;10.920;2022-09-01T01:40:41;1.10;;;1.10;;
6739;SDS011;3407;49.882;10.920;2022-09-01T01:45:37;1.50;;;1.40;;
6739;SDS011;3407;49.882;10.920;2022-09-01T01:50:33;1.10;;;1.10;;
6739;SDS011;3407;49.882;10.920;2022-09-01T01:55:29;3.07;;;1.13;;
6739;SDS011;3407;49.882;10.920;2022-09-01T02:00:27;1.13;;;1.13;;
6739;SDS011;3407;49.882;10.920;2022-09-01T02:05:28;1.03;;;1.03;;
6739;SDS011;3407;49.882;10.920;2022-09-01T02:10:27;1.10;;;1.10;;
6739;SDS011;3407;49.882;10.920;2022-09-01T02:15:25;1.60;;;1.50;;
6739;SDS011;3407;49.882;10.920;2022-09-01T02:20:20;11.87;;;2.00;;
6739;SDS011;3407;49.882;10.920;2022-09-01T02:25:18;1.07;;;1.07;;
6739;SDS011;3407;49.882;10.920;2022-09-01T02:30:14;1.23;;;1.20;;
6739;SDS011;3407;49.882;10.920;2022-09-01T02:35:10;1.17;;;1.17;;
6739;SDS011;3407;49.882;10.920;2022-09-01T02:40:06;3.73;;;1.73;;
6739;SDS011;3407;49.882;10.920;2022-09-01T02:45:04;1.20;;;1.20;;
6739;SDS011;3407;49.882;10.920;2022-09-01T02:50:09;0.97;;;0.97;;
6739;SDS011;3407;49.882;10.920;2022-09-01T02:55:11;1.60;;;1.50;;
6739;SDS011;3407;49.882;10.920;2022-09-01T03:00:07;1.40;;;1.40;;
6739;SDS011;3407;49.882;10.920;2022-09-01T03:05:14;1.07;;;1.00;;
6739;SDS011;3407;49.882;10.920;2022-09-01T03:10:10;0.90;;;0.90;;
6739;SDS011;3407;49.882;10.920;2022-09-01T03:15:06;2.83;;;1.50;;
6739;SDS011;3407;49.882;10.920;2022-09-01T03:20:02;1.30;;;1.30;;
6739;SDS011;3407;49.882;10.920;2022-09-01T03:24:58;1.83;;;1.53;;
6739;SDS011;3407;49.882;10.920;2022-09-01T03:29:53;1.63;;;1.50;;
6739;SDS011;3407;49.882;10.920;2022-09-01T03:34:49;1.30;;;1.30;;
6739;SDS011;3407;49.882;10.920;2022-09-01T03:39:45;2.13;;;1.43;;
6739;SDS011;3407;49.882;10.920;2022-09-01T03:44:40;1.30;;;1.20;;
6739;SDS011;3407;49.882;10.920;2022-09-01T03:49:38;1.30;;;1.30;;
6739;SDS011;3407;49.882;10.920;2022-09-01T03:54:34;1.63;;;1.53;;
6739;SDS011;3407;49.882;10.920;2022-09-01T03:59:31;1.17;;;1.10;;
6739;SDS011;3407;49.882;10.920;2022-09-01T04:04:27;1.10;;;1.10;;
6739;SDS011;3407;49.882;10.920;2022-09-01T04:09:26;1.50;;;1.40;;
6739;SDS011;3407;49.882;10.920;2022-09-01T04:14:22;1.63;;;1.53;;
6739;SDS011;3407;49.882;10.920;2022-09-01T04:19:20;1.87;;;1.43;;
6739;SDS011;3407;49.882;10.920;2022-09-01T04:24:21;1.73;;;1.57;;
6739;SDS011;3407;49.882;10.920;2022-09-01T04:29:19;1.57;;;1.50;;
6739;SDS011;3407;49.882;10.920;2022-09-01T04:34:21;1.03;;;1.03;;
6739;SDS011;3407;49.882;10.920;2022-09-01T04:39:18;1.30;;;1.20;;
6739;SDS011;3407;49.882;10.920;2022-09-01T04:44:15;1.90;;;1.53;;
6739;SDS011;3407;49.882;10.920;2022-09-01T04:49:13;1.50;;;1.40;;
6739;SDS011;3407;49.882;10.920;2022-09-01T04:54:13;1.27;;;1.10;;
6739;SDS011;3407;49.882;10.920;2022-09-01T04:59:10;1.40;;;1.30;;
6739;SDS011;3407;49.882;10.920;2022-09-01T05:04:11;1.43;;;1.43;;
6739;SDS011;3407;49.882;10.920;2022-09-01T05:09:12;1.00;;;1.00;;
6739;SDS011;3407;49.882;10.920;2022-09-01T05:14:08;1.50;;;1.50;;
6739;SDS011;3407;49.882;10.920;2022-09-01T05:19:03;1.10;;;1.10;;
6739;SDS011;3407;49.882;10.920;2022-09-01T05:24:00;1.70;;;1.60;;
6739;SDS011;3407;49.882;10.920;2022-09-01T05:28:58;1.37;;;1.27;;
6739;SDS011;3407;49.882;10.920;2022-09-01T05:33:57;1.27;;;1.27;;
6739;SDS011;3407;49.882;10.920;2022-09-01T05:38:52;2.60;;;1.30;;
6739;SDS011;3407;49.882;10.920;2022-09-01T05:43:49;1.23;;;1.20;;
6739;SDS011;3407;49.882;10.920;2022-09-01T05:48:47;2.00;;;1.50;;
6739;SDS011;3407;49.882;10.920;2022-09-01T05:53:47;1.73;;;1.30;;
6739;SDS011;3407;49.882;10.920;2022-09-01T05:58:48;1.40;;;1.30;;
6739;SDS011;3407;49.882;10.920;2022-09-01T06:03:44;1.27;;;1.27;;
6739;SDS011;3407;49.882;10.920;2022-09-01T06:08:40;1.47;;;1.37;;
6739;SDS011;3407;49.882;10.920;2022-09-01T06:13:37;1.87;;;1.37;;
6739;SDS011;3407;49.882;10.920;2022-09-01T06:18:36;2.13;;;1.30;;
6739;SDS011;3407;49.882;10.920;2022-09-01T06:23:33;1.43;;;1.00;;
6739;SDS011;3407;49.882;10.920;2022-09-01T06:28:29;1.50;;;1.40;;
6739;SDS011;3407;49.882;10.920;2022-09-01T06:33:25;0.97;;;0.97;;
6739;SDS011;3407;49.882;10.920;2022-09-01T06:38:21;1.60;;;1.47;;
6739;SDS011;3407;49.882;10.920;2022-09-01T06:43:16;1.30;;;1.20;;
6739;SDS011;3407;49.882;10.920;2022-09-01T06:48:13;1.53;;;1.43;;
6739;SDS011;3407;49.882;10.920;2022-09-01T06:53:09;1.13;;;1.03;;
6739;SDS011;3407;49.882;10.920;2022-09-01T06:58:08;1.20;;;0.87;;
6739;SDS011;3407;49.882;10.920;2022-09-01T07:03:10;2.07;;;1.00;;
6739;SDS011;3407;49.882;10.920;2022-09-01T07:08:09;0.70;;;0.70;;
6739;SDS011;3407;49.882;10.920;2022-09-01T07:13:07;0.70;;;0.70;;
6739;SDS011;3407;49.882;10.920;2022-09-01T07:18:04;1.23;;;0.80;;
6739;SDS011;3407;49.882;10.920;2022-09-01T07:23:00;1.30;;;1.00;;
6739;SDS011;3407;49.882;10.920;2022-09-01T07:27:56;0.60;;;0.60;;
6739;SDS011;3407;49.882;10.920;2022-09-01T07:32:54;0.80;;;0.80;;
6739;SDS011;3407;49.882;10.920;2022-09-01T07:37:49;1.50;;;0.70;;
6739;SDS011;3407;49.882;10.920;2022-09-01T07:42:45;1.13;;;0.60;;
6739;SDS011;3407;49.882;10.920;2022-09-01T07:47:42;0.60;;;0.60;;
6739;SDS011;3407;49.882;10.920;2022-09-01T07:52:39;0.77;;;0.77;;
6739;SDS011;3407;49.882;10.920;2022-09-01T07:57:40;1.42;;;0.70;;
6739;SDS011;3407;49.882;10.920;2022-09-01T08:02:37;0.75;;;0.70;;
6739;SDS011;3407;49.882;10.920;2022-09-01T08:07:34;0.70;;;0.70;;
6739;SDS011;3407;49.882;10.920;2022-09-01T08:12:30;0.70;;;0.70;;
6739;SDS011;3407;49.882;10.920;2022-09-01T08:17:26;0.93;;;0.70;;
6739;SDS011;3407;49.882;10.920;2022-09-01T08:22:23;0.93;;;0.93;;
6739;SDS011;3407;49.882;10.920;2022-09-01T08:27:19;1.35;;;0.60;;
6739;SDS011;3407;49.882;10.920;2022-09-01T08:32:15;1.95;;;0.70;;
6739;SDS011;3407;49.882;10.920;2022-09-01T08:37:10;0.43;;;0.43;;
6739;SDS011;3407;49.882;10.920;2022-09-01T08:42:22;0.82;;;0.82;;
6739;SDS011;3407;49.882;10.920;2022-09-01T08:47:23;0.80;;;0.80;;
6739;SDS011;3407;49.882;10.920;2022-09-01T08:57:40;0.80;;;0.80;;
6739;SDS011;3407;49.882;10.920;2022-09-01T09:02:41;0.60;;;0.60;;
6739;SDS011;3407;49.882;10.920;2022-09-01T09:18:25;0.70;;;0.70;;
6739;SDS011;3407;49.882;10.920;2022-09-01T09:23:35;0.55;;;0.55;;
6739;SDS011;3407;49.882;10.920;2022-09-01T09:28:35;0.82;;;0.65;;
6739;SDS011;3407;49.882;10.920;2022-09-01T09:33:34;0.77;;;0.77;;
6739;SDS011;3407;49.882;10.920;2022-09-01T09:38:31;0.60;;;0.60;;
6739;SDS011;3407;49.882;10.920;2022-09-01T09:43:27;0.70;;;0.70;;
6739;SDS011;3407;49.882;10.920;2022-09-01T09:48:27;0.60;;;0.60;;
6739;SDS011;3407;49.882;10.920;2022-09-01T09:53:26;0.80;;;0.80;;
6739;SDS011;3407;49.882;10.920;2022-09-01T09:58:23;0.60;;;0.60;;
6739;SDS011;3407;49.882;10.920;2022-09-01T10:03:35;0.60;;;0.60;;
6739;SDS011;3407;49.882;10.920;2022-09-01T10:08:38;1.55;;;0.80;;
6739;SDS011;3407;49.882;10.920;2022-09-01T10:13:38;1.00;;;0.80;;
6739;SDS011;3407;49.882;10.920;2022-09-01T10:18:38;1.33;;;0.80;;
6739;SDS011;3407;49.882;10.920;2022-09-01T10:23:38;0.70;;;0.70;;
6739;SDS011;3407;49.882;10.920;2022-09-01T10:28:45;1.03;;;0.93;;
6739;SDS011;3407;49.882;10.920;2022-09-01T10:33:47;1.40;;;1.10;;
6739;SDS011;3407;49.882;10.920;2022-09-01T10:38:43;0.70;;;0.70;;
6739;SDS011;3407;49.882;10.920;2022-09-01T10:43:41;0.70;;;0.70;;
6739;SDS011;3407;49.882;10.920;2022-09-01T10:48:39;0.70;;;0.70;;
6739;SDS011;3407;49.882;10.920;2022-09-01T10:58:40;0.70;;;0.70;;
6739;SDS011;3407;49.882;10.920;2022-09-01T11:04:01;0.90;;;0.90;;
6739;SDS011;3407;49.882;10.920;2022-09-01T11:09:03;0.93;;;0.87;;
6739;SDS011;3407;49.882;10.920;2022-09-01T11:14:01;1.13;;;0.67;;
6739;SDS011;3407;49.882;10.920;2022-09-01T11:34:49;0.60;;;0.60;;
6739;SDS011;3407;49.882;10.920;2022-09-01T11:39:59;0.60;;;0.60;;
6739;SDS011;3407;49.882;10.920;2022-09-01T11:50:21;1.07;;;0.60;;
6739;SDS011;3407;49.882;10.920;2022-09-01T11:55:26;0.60;;;0.60;;
6739;SDS011;3407;49.882;10.920;2022-09-01T12:00:31;0.77;;;0.77;;
6739;SDS011;3407;49.882;10.920;2022-09-01T12:05:33;0.60;;;0.60;;
6739;SDS011;3407;49.882;10.920;2022-09-01T12:10:34;1.90;;;0.80;;
6739;SDS011;3407;49.882;10.920;2022-09-01T12:15:32;0.80;;;0.80;;
6739;SDS011;3407;49.882;10.920;2022-09-01T12:20:31;0.60;;;0.60;;
6739;SDS011;3407;49.882;10.920;2022-09-01T12:25:33;0.63;;;0.60;;
6739;SDS011;3407;49.882;10.920;2022-09-01T12:30:29;0.73;;;0.73;;
6739;SDS011;3407;49.882;10.920;2022-09-01T12:35:29;0.73;;;0.73;;
6739;SDS011;3407;49.882;10.920;2022-09-01T12:40:29;0.97;;;0.80;;
6739;SDS011;3407;49.882;10.920;2022-09-01T12:45:42;0.60;;;0.60;;
6739;SDS011;3407;49.882;10.920;2022-09-01T12:50:43;0.53;;;0.53;;
6739;SDS011;3407;49.882;10.920;2022-09-01T12:55:39;0.60;;;0.60;;
6739;SDS011;3407;49.882;10.920;2022-09-01T13:05:56;1.17;;;1.10;;
6739;SDS011;3407;49.882;10.920;2022-09-01T13:10:57;0.80;;;0.80;;
6739;SDS011;3407;49.882;10.920;2022-09-01T13:15:58;1.03;;;0.90;;
6739;SDS011;3407;49.882;10.920;2022-09-01T13:20:56;0.90;;;0.90;;
6739;SDS011;3407;49.882;10.920;2022-09-01T13:25:52;0.77;;;0.77;;
6739;SDS011;3407;49.882;10.920;2022-09-01T13:30:49;0.90;;;0.90;;
6739;SDS011;3407;49.882;10.920;2022-09-01T13:35:49;0.93;;;0.93;;
6739;SDS011;3407;49.882;10.920;2022-09-01T13:40:45;0.70;;;0.70;;
6739;SDS011;3407;49.882;10.920;2022-09-01T13:45:42;0.90;;;0.90;;
6739;SDS011;3407;49.882;10.920;2022-09-01T13:50:38;0.50;;;0.50;;
6739;SDS011;3407;49.882;10.920;2022-09-01T13:55:34;0.90;;;0.90;;
6739;SDS011;3407;49.882;10.920;2022-09-01T14:00:34;0.90;;;0.80;;
6739;SDS011;3407;49.882;10.920;2022-09-01T14:05:33;2.13;;;0.77;;
6739;SDS011;3407;49.882;10.920;2022-09-01T14:10:32;0.57;;;0.57;;
6739;SDS011;3407;49.882;10.920;2022-09-01T14:15:31;0.80;;;0.80;;
6739;SDS011;3407;49.882;10.920;2022-09-01T14:20:29;1.23;;;0.90;;
6739;SDS011;3407;49.882;10.920;2022-09-01T14:25:29;0.70;;;0.70;;
6739;SDS011;3407;49.882;10.920;2022-09-01T14:30:28;0.90;;;0.90;;
6739;SDS011;3407;49.882;10.920;2022-09-01T14:35:25;0.93;;;0.83;;
6739;SDS011;3407;49.882;10.920;2022-09-01T14:40:21;0.70;;;0.70;;
6739;SDS011;3407;49.882;10.920;2022-09-01T14:45:18;0.63;;;0.63;;
6739;SDS011;3407;49.882;10.920;2022-09-01T14:50:19;0.80;;;0.80;;
6739;SDS011;3407;49.882;10.920;2022-09-01T14:55:16;0.77;;;0.70;;
6739;SDS011;3407;49.882;10.920;2022-09-01T15:00:11;1.00;;;1.00;;
6739;SDS011;3407;49.882;10.920;2022-09-01T15:05:08;2.17;;;1.07;;
6739;SDS011;3407;49.882;10.920;2022-09-01T15:10:05;0.90;;;0.90;;
6739;SDS011;3407;49.882;10.920;2022-09-01T15:15:02;0.77;;;0.77;;
6739;SDS011;3407;49.882;10.920;2022-09-01T15:19:58;0.90;;;0.90;;
6739;SDS011;3407;49.882;10.920;2022-09-01T15:25:15;0.80;;;0.80;;
6739;SDS011;3407;49.882;10.920;2022-09-01T15:30:12;1.70;;;1.10;;
6739;SDS011;3407;49.882;10.920;2022-09-01T15:35:09;0.60;;;0.60;;
6739;SDS011;3407;49.882;10.920;2022-09-01T15:40:06;0.50;;;0.50;;
6739;SDS011;3407;49.882;10.920;2022-09-01T15:45:03;0.80;;;0.80;;
6739;SDS011;3407;49.882;10.920;2022-09-01T15:50:02;0.77;;;0.77;;
6739;SDS011;3407;49.882;10.920;2022-09-01T15:55:01;0.60;;;0.60;;
6739;SDS011;3407;49.882;10.920;2022-09-01T15:59:57;0.70;;;0.70;;
6739;SDS011;3407;49.882;10.920;2022-09-01T16:04:52;1.03;;;0.90;;
6739;SDS011;3407;49.882;10.920;2022-09-01T16:09:50;0.70;;;0.70;;
6739;SDS011;3407;49.882;10.920;2022-09-01T16:14:52;0.83;;;0.80;;
6739;SDS011;3407;49.882;10.920;2022-09-01T16:19:53;0.67;;;0.67;;
6739;SDS011;3407;49.882;10.920;2022-09-01T16:24:55;0.80;;;0.80;;
6739;SDS011;3407;49.882;10.920;2022-09-01T16:30:22;0.70;;;0.70;;
6739;SDS011;3407;49.882;10.920;2022-09-01T16:35:21;0.70;;;0.70;;
6739;SDS011;3407;49.882;10.920;2022-09-01T16:55:54;0.80;;;0.80;;
6739;SDS011;3407;49.882;10.920;2022-09-01T17:11:40;0.63;;;0.63;;
6739;SDS011;3407;49.882;10.920;2022-09-01T17:16:41;0.73;;;0.70;;
6739;SDS011;3407;49.882;10.920;2022-09-01T17:21:39;0.70;;;0.70;;
6739;SDS011;3407;49.882;10.920;2022-09-01T17:26:40;0.70;;;0.70;;
6739;SDS011;3407;49.882;10.920;2022-09-01T17:31:39;0.70;;;0.70;;
6739;SDS011;3407;49.882;10.920;2022-09-01T17:36:51;0.80;;;0.80;;
6739;SDS011;3407;49.882;10.920;2022-09-01T17:47:34;1.03;;;0.93;;
6739;SDS011;3407;49.882;10.920;2022-09-01T18:03:19;0.53;;;0.53;;
6739;SDS011;3407;49.882;10.920;2022-09-01T18:08:39;0.50;;;0.50;;
6739;SDS011;3407;49.882;10.920;2022-09-01T18:13:54;0.60;;;0.60;;
6739;SDS011;3407;49.882;10.920;2022-09-01T18:19:04;0.90;;;0.90;;
6739;SDS011;3407;49.882;10.920;2022-09-01T18:24:17;0.70;;;0.70;;
6739;SDS011;3407;49.882;10.920;2022-09-01T18:29:16;0.83;;;0.83;;
6739;SDS011;3407;49.882;10.920;2022-09-01T18:34:32;0.70;;;0.70;;
6739;SDS011;3407;49.882;10.920;2022-09-01T18:50:27;0.60;;;0.60;;
6739;SDS011;3407;49.882;10.920;2022-09-01T19:00:32;0.63;;;0.63;;
6739;SDS011;3407;49.882;10.920;2022-09-01T19:21:28;0.60;;;0.60;;
6739;SDS011;3407;49.882;10.920;2022-09-01T19:26:27;0.60;;;0.60;;
6739;SDS011;3407;49.882;10.920;2022-09-01T19:31:27;0.70;;;0.70;;
6739;SDS011;3407;49.882;10.920;2022-09-01T19:36:41;0.70;;;0.70;;
6739;SDS011;3407;49.882;10.920;2022-09-01T19:42:03;0.70;;;0.70;;
6739;SDS011;3407;49.882;10.920;2022-09-01T19:47:05;0.60;;;0.60;;
6739;SDS011;3407;49.882;10.920;2022-09-01T19:52:20;0.93;;;0.80;;
6739;SDS011;3407;49.882;10.920;2022-09-01T19:57:32;0.63;;;0.63;;
6739;SDS011;3407;49.882;10.920;2022-09-01T20:08:01;0.60;;;0.60;;
6739;SDS011;3407;49.882;10.920;2022-09-01T20:23:53;0.77;;;0.77;;
6739;SDS011;3407;49.882;10.920;2022-09-01T20:44:54;0.90;;;0.90;;
6739;SDS011;3407;49.882;10.920;2022-09-01T20:49:51;0.93;;;0.93;;
6739;SDS011;3407;49.882;10.920;2022-09-01T21:00:09;1.10;;;1.10;;
6739;SDS011;3407;49.882;10.920;2022-09-01T21:10:41;0.70;;;0.70;;
6739;SDS011;3407;49.882;10.920;2022-09-01T21:15:53;0.80;;;0.77;;
6739;SDS011;3407;49.882;10.920;2022-09-01T21:21:12;0.90;;;0.90;;
6739;SDS011;3407;49.882;10.920;2022-09-01T21:26:10;1.63;;;0.87;;
6739;SDS011;3407;49.882;10.920;2022-09-01T21:31:06;1.67;;;0.93;;
6739;SDS011;3407;49.882;10.920;2022-09-01T21:36:02;9.33;;;1.07;;
6739;SDS011;3407;49.882;10.920;2022-09-01T21:40:58;1.07;;;1.07;;
6739;SDS011;3407;49.882;10.920;2022-09-01T21:45:54;0.80;;;0.80;;
6739;SDS011;3407;49.882;10.920;2022-09-01T21:50:50;0.70;;;0.70;;
6739;SDS011;3407;49.882;10.920;2022-09-01T21:55:46;1.90;;;1.03;;
6739;SDS011;3407;49.882;10.920;2022-09-01T22:00:41;1.30;;;1.20;;
6739;SDS011;3407;49.882;10.920;2022-09-01T22:05:39;3.83;;;1.50;;
6739;SDS011;3407;49.882;10.920;2022-09-01T22:10:42;3.70;;;1.20;;
6739;SDS011;3407;49.882;10.920;2022-09-01T22:15:41;1.73;;;1.23;;
6739;SDS011;3407;49.882;10.920;2022-09-01T22:20:38;2.57;;;2.03;;
6739;SDS011;3407;49.882;10.920;2022-09-01T22:25:34;1.27;;;1.27;;
6739;SDS011;3407;49.882;10.920;2022-09-01T22:30:41;1.47;;;1.37;;
6739;SDS011;3407;49.882;10.920;2022-09-01T22:35:38;0.97;;;0.97;;
6739;SDS011;3407;49.882;10.920;2022-09-01T22:40:41;1.30;;;1.20;;
6739;SDS011;3407;49.882;10.920;2022-09-01T22:45:41;1.03;;;1.00;;
6739;SDS011;3407;49.882;10.920;2022-09-01T22:50:37;0.70;;;0.70;;
6739;SDS011;3407;49.882;10.920;2022-09-01T22:55:37;0.80;;;0.80;;
6739;SDS011;3407;49.882;10.920;2022-09-01T23:00:34;2.30;;;1.40;;
6739;SDS011;3407;49.882;10.920;2022-09-01T23:05:31;0.80;;;0.80;;
6739;SDS011;3407;49.882;10.920;2022-09-01T23:10:26;2.97;;;1.23;;
6739;SDS011;3407;49.882;10.920;2022-09-01T23:15:22;0.93;;;0.93;;
6739;SDS011;3407;49.882;10.920;2022-09-01T23:20:18;1.07;;;1.07;;
6739;SDS011;3407;49.882;10.920;2022-09-01T23:25:14;0.90;;;0.90;;
6739;SDS011;3407;49.882;10.920;2022-09-01T23:30:11;0.90;;;0.90;;
6739;SDS011;3407;49.882;10.920;2022-09-01T23:35:08;0.70;;;0.70;;
6739;SDS011;3407;49.882;10.920;2022-09-01T23:40:04;1.77;;;1.40;;
6739;SDS011;3407;49.882;10.920;2022-09-01T23:45:02;1.90;;;1.00;;
6739;SDS011;3407;49.882;10.920;2022-09-01T23:49:57;0.70;;;0.70;;
6739;SDS011;3407;49.882;10.920;2022-09-01T23:54:53;0.83;;;0.83;;
6739;SDS011;3407;49.882;10.920;2022-09-01T23:59:49;1.00;;;1.00;;
